createdAt,value
2022-11-16T00:01:41.065Z,99.90
2022-11-16T00:04:12.842Z,99.90
2022-11-16T00:06:42.202Z,99.80
2022-11-16T00:09:26.743Z,99.90
2022-11-16T00:11:56.889Z,99.90
2022-11-16T00:14:27.028Z,99.90
2022-11-16T00:16:55.045Z,99.90
2022-11-16T00:19:24.907Z,99.70
2022-11-16T00:21:53.222Z,99.90
2022-11-16T00:24:23.253Z,99.90
2022-11-16T00:26:52.067Z,99.90
2022-11-16T00:29:22.527Z,99.90
2022-11-16T00:31:50.909Z,99.90
2022-11-16T00:34:19.344Z,99.90
2022-11-16T00:36:48.577Z,99.90
2022-11-16T00:39:17.752Z,99.90
2022-11-16T00:41:46.054Z,99.90
2022-11-16T00:44:14.314Z,99.90
2022-11-16T00:46:42.397Z,99.90
2022-11-16T00:49:10.462Z,99.90
2022-11-16T00:51:38.754Z,99.90
2022-11-16T00:54:09.418Z,99.90
2022-11-16T00:56:38.339Z,99.90
2022-11-16T00:59:06.286Z,99.90
2022-11-16T01:01:34.518Z,99.90
2022-11-16T01:04:02.555Z,99.90
2022-11-16T01:06:30.422Z,99.90
2022-11-16T01:08:58.337Z,99.90
2022-11-16T01:11:45.281Z,99.90
2022-11-16T01:14:13.315Z,99.90
2022-11-16T01:16:41.153Z,99.90
2022-11-16T01:19:10.455Z,99.90
2022-11-16T01:21:38.306Z,99.90
2022-11-16T01:24:07.009Z,99.90
2022-11-16T01:26:36.260Z,99.90
2022-11-16T01:29:04.203Z,99.90
2022-11-16T01:31:32.097Z,99.90
2022-11-16T01:33:59.929Z,99.90
2022-11-16T01:36:27.779Z,99.90
2022-11-16T01:38:55.649Z,99.90
2022-11-16T01:41:25.682Z,99.90
2022-11-16T01:43:58.616Z,99.90
2022-11-16T01:46:27.595Z,99.90
2022-11-16T01:49:01.646Z,99.90
2022-11-16T01:51:30.079Z,99.90
2022-11-16T01:53:58.255Z,99.90
2022-11-16T01:56:27.155Z,99.70
2022-11-16T01:58:56.354Z,99.80
2022-11-16T02:01:24.548Z,99.60
2022-11-16T02:03:52.399Z,99.80
2022-11-16T02:06:41.767Z,99.90
2022-11-16T02:09:41.795Z,99.90
2022-11-16T02:12:32.021Z,99.90
2022-11-16T02:15:14.408Z,99.90
2022-11-16T02:17:59.430Z,99.90
2022-11-16T02:20:43.257Z,99.90
2022-11-16T02:23:48.465Z,99.90
2022-11-16T02:26:38.422Z,99.80
2022-11-16T02:29:21.292Z,99.70
2022-11-16T02:31:55.384Z,99.90
2022-11-16T02:34:25.462Z,99.90
2022-11-16T02:36:56.501Z,99.40
2022-11-16T02:39:28.324Z,99.40
2022-11-16T02:41:57.990Z,99.20
2022-11-16T02:44:31.914Z,99.40
2022-11-16T02:47:03.626Z,99.20
2022-11-16T02:49:34.462Z,98.80
2022-11-16T02:52:02.889Z,98.70
2022-11-16T02:54:30.747Z,98.90
2022-11-16T02:57:20.756Z,99.10
2022-11-16T02:59:53.752Z,99.90
2022-11-16T03:02:26.655Z,99.50
2022-11-16T03:05:00.805Z,99.50
2022-11-16T03:07:40.756Z,99.90
2022-11-16T03:10:10.150Z,99.90
2022-11-16T03:12:40.398Z,99.70
2022-11-16T03:15:13.277Z,99.80
2022-11-16T03:17:45.318Z,99.60
2022-11-16T03:20:16.497Z,99.70
2022-11-16T03:22:46.736Z,99.10
2022-11-16T03:25:17.338Z,99.50
2022-11-16T03:27:50.986Z,99.90
2022-11-16T03:30:24.060Z,99.60
2022-11-16T03:32:56.760Z,99.70
2022-11-16T03:35:28.735Z,99.90
2022-11-16T03:37:59.488Z,99.90
2022-11-16T03:40:31.357Z,99.90
2022-11-16T03:43:01.806Z,99.90
2022-11-16T03:45:32.435Z,99.90
2022-11-16T03:48:01.449Z,99.80
2022-11-16T03:50:29.306Z,99.60
2022-11-16T03:52:57.151Z,99.40
2022-11-16T03:55:25.080Z,99.10
2022-11-16T03:57:52.926Z,99.00
2022-11-16T04:00:20.974Z,99.20
2022-11-16T04:02:50.865Z,99.20
2022-11-16T04:05:36.322Z,99.30
2022-11-16T04:08:21.888Z,99.40
2022-11-16T04:11:07.328Z,99.40
2022-11-16T04:13:53.490Z,99.40
2022-11-16T04:16:39.121Z,99.40
2022-11-16T04:19:27.156Z,99.40
2022-11-16T04:22:15.925Z,99.40
2022-11-16T04:24:47.449Z,99.40
2022-11-16T04:27:34.716Z,99.60
2022-11-16T04:30:04.124Z,99.50
2022-11-16T04:32:49.457Z,99.20
2022-11-16T04:35:36.049Z,99.10
2022-11-16T04:38:03.910Z,99.20
2022-11-16T04:40:31.836Z,98.90
2022-11-16T04:43:01.331Z,99.10
2022-11-16T04:45:47.698Z,98.60
2022-11-16T04:48:17.788Z,99.00
2022-11-16T04:50:48.126Z,98.80
2022-11-16T04:53:16.697Z,98.80
2022-11-16T04:55:44.580Z,98.60
2022-11-16T04:58:12.445Z,98.30
2022-11-16T05:00:40.297Z,98.10
2022-11-16T05:03:08.180Z,97.70
2022-11-16T05:05:36.040Z,98.30
2022-11-16T05:08:05.466Z,98.00
2022-11-16T05:10:33.339Z,98.00
2022-11-16T05:13:01.188Z,98.10
2022-11-16T05:15:29.086Z,97.60
2022-11-16T05:17:58.141Z,97.60
2022-11-16T05:20:43.351Z,98.10
2022-11-16T05:23:26.467Z,97.80
2022-11-16T05:25:54.291Z,98.00
2022-11-16T05:28:22.111Z,98.10
2022-11-16T05:30:49.929Z,98.50
2022-11-16T05:33:18.564Z,98.50
2022-11-16T05:35:46.380Z,98.20
2022-11-16T05:38:15.548Z,98.40
2022-11-16T05:40:43.377Z,98.40
2022-11-16T05:43:11.281Z,98.60
2022-11-16T05:45:39.123Z,98.70
2022-11-16T05:48:06.966Z,98.60
2022-11-16T05:50:39.889Z,98.60
2022-11-16T05:53:10.316Z,98.10
2022-11-16T05:55:39.506Z,97.80
2022-11-16T05:58:07.367Z,98.30
2022-11-16T06:00:35.206Z,98.40
2022-11-16T06:03:03.202Z,98.20
2022-11-16T06:05:32.469Z,97.90
2022-11-16T06:08:01.964Z,98.00
2022-11-16T06:10:29.827Z,97.50
2022-11-16T06:12:59.045Z,97.80
2022-11-16T06:15:26.912Z,97.50
2022-11-16T06:17:54.767Z,97.20
2022-11-16T06:20:22.713Z,96.80
2022-11-16T06:22:50.557Z,96.50
2022-11-16T06:25:18.862Z,96.60
2022-11-16T06:27:46.727Z,96.20
2022-11-16T06:30:16.820Z,96.60
2022-11-16T06:32:45.284Z,96.30
2022-11-16T06:35:13.134Z,96.70
2022-11-16T06:37:40.988Z,96.70
2022-11-16T06:40:10.489Z,96.90
2022-11-16T06:42:38.624Z,96.90
2022-11-16T06:45:07.196Z,96.90
2022-11-16T06:47:36.434Z,96.50
2022-11-16T06:50:04.652Z,97.00
2022-11-16T06:52:32.521Z,97.40
2022-11-16T06:55:00.364Z,97.80
2022-11-16T06:57:28.192Z,97.90
2022-11-16T06:59:56.046Z,98.20
2022-11-16T07:02:23.914Z,97.80
2022-11-16T07:04:53.109Z,98.00
2022-11-16T07:07:21.013Z,97.90
2022-11-16T07:09:48.932Z,97.70
2022-11-16T07:12:16.780Z,97.70
2022-11-16T07:14:45.348Z,98.10
2022-11-16T07:17:13.193Z,98.10
2022-11-16T07:19:41.074Z,98.00
2022-11-16T07:22:10.282Z,97.60
2022-11-16T07:24:38.129Z,97.30
2022-11-16T07:27:06.043Z,97.10
2022-11-16T07:29:33.913Z,96.80
2022-11-16T07:32:01.772Z,96.50
2022-11-16T07:34:29.730Z,96.30
2022-11-16T07:36:57.606Z,96.30
2022-11-16T07:39:26.815Z,96.30
2022-11-16T07:41:54.689Z,96.10
2022-11-16T07:44:22.570Z,96.10
2022-11-16T07:46:50.410Z,96.00
2022-11-16T07:49:19.610Z,95.90
2022-11-16T07:51:47.853Z,95.90
2022-11-16T07:54:16.661Z,95.70
2022-11-16T07:56:46.077Z,95.90
2022-11-16T07:59:13.937Z,95.80
2022-11-16T08:01:41.886Z,95.60
2022-11-16T08:04:09.770Z,95.00
2022-11-16T08:06:37.671Z,95.80
2022-11-16T08:09:05.685Z,95.90
2022-11-16T08:11:33.613Z,95.80
2022-11-16T08:14:02.873Z,95.90
2022-11-16T08:16:33.107Z,95.80
2022-11-16T08:19:02.219Z,95.80
2022-11-16T08:21:30.120Z,95.60
2022-11-16T08:23:58.904Z,95.80
2022-11-16T08:26:27.542Z,95.80
2022-11-16T08:28:57.064Z,95.70
2022-11-16T08:31:27.998Z,95.70
2022-11-16T08:33:56.638Z,95.90
2022-11-16T08:36:24.866Z,96.00
2022-11-16T08:38:53.410Z,96.00
2022-11-16T08:41:22.207Z,96.00
2022-11-16T08:43:53.052Z,95.70
2022-11-16T08:46:21.165Z,96.00
2022-11-16T08:48:50.362Z,95.90
2022-11-16T08:51:20.146Z,95.80
2022-11-16T08:53:49.435Z,95.70
2022-11-16T08:56:19.259Z,95.80
2022-11-16T08:58:50.240Z,95.80
2022-11-16T09:01:22.413Z,95.60
2022-11-16T09:03:52.950Z,95.40
2022-11-16T09:06:21.724Z,94.40
2022-11-16T09:08:49.602Z,94.90
2022-11-16T09:11:19.930Z,95.60
2022-11-16T09:13:49.150Z,96.20
2022-11-16T09:16:17.981Z,96.70
2022-11-16T09:18:47.055Z,96.90
2022-11-16T09:21:20.306Z,97.00
2022-11-16T09:23:48.909Z,97.10
2022-11-16T09:26:19.066Z,97.00
2022-11-16T09:28:46.919Z,97.00
2022-11-16T09:31:17.659Z,97.20
2022-11-16T09:33:49.809Z,97.20
2022-11-16T09:36:20.514Z,97.40
2022-11-16T09:42:01.187Z,97.50
2022-11-16T09:44:57.406Z,97.50
2022-11-16T09:47:32.647Z,97.60
2022-11-16T09:50:04.666Z,97.60
2022-11-16T09:52:39.591Z,97.60
2022-11-16T09:55:25.571Z,97.60
2022-11-16T09:57:56.959Z,97.60
2022-11-16T10:00:25.169Z,97.30
2022-11-16T10:03:03.455Z,97.30
2022-11-16T10:05:37.446Z,97.00
2022-11-16T10:08:14.348Z,97.40
2022-11-16T10:10:52.213Z,97.50
2022-11-16T10:13:29.826Z,97.50
2022-11-16T10:16:04.004Z,97.60
2022-11-16T10:18:44.126Z,97.40
2022-11-16T10:21:34.790Z,96.50
2022-11-16T10:24:37.946Z,96.50
2022-11-16T10:27:35.198Z,96.80
2022-11-16T10:30:10.130Z,96.90
2022-11-16T10:32:42.033Z,97.00
2022-11-16T10:35:18.255Z,97.30
2022-11-16T10:37:49.154Z,97.50
2022-11-16T10:40:21.616Z,95.20
2022-11-16T10:43:00.026Z,98.00
2022-11-16T10:45:34.613Z,97.90
2022-11-16T10:48:13.464Z,98.30
2022-11-16T10:50:44.954Z,98.40
2022-11-16T10:53:15.591Z,98.30
2022-11-16T10:55:44.791Z,98.20
2022-11-16T10:58:12.660Z,97.80
2022-11-16T11:00:44.839Z,97.50
2022-11-16T11:03:13.165Z,97.50
2022-11-16T11:05:50.385Z,97.60
2022-11-16T11:08:27.436Z,97.70
2022-11-16T11:11:24.530Z,97.70
2022-11-16T11:14:09.798Z,97.80
2022-11-16T11:16:37.993Z,97.40
2022-11-16T11:19:25.422Z,97.50
2022-11-16T11:21:58.177Z,97.90
2022-11-16T11:24:45.096Z,98.00
2022-11-16T11:27:21.689Z,97.50
2022-11-16T11:29:53.303Z,97.40
2022-11-16T11:32:24.526Z,97.10
2022-11-16T11:34:55.731Z,97.30
2022-11-16T11:37:28.553Z,96.90
2022-11-16T11:40:21.743Z,96.60
2022-11-16T11:42:56.943Z,96.40
2022-11-16T11:45:31.554Z,96.10
2022-11-16T11:48:02.714Z,96.50
2022-11-16T11:50:43.420Z,93.00
2022-11-16T11:53:21.822Z,96.80
2022-11-16T11:55:53.576Z,92.40
2022-11-16T11:58:24.397Z,94.50
2022-11-16T12:01:00.784Z,95.70
2022-11-16T12:03:57.527Z,96.50
2022-11-16T12:06:32.662Z,97.20
2022-11-16T12:09:21.342Z,97.40
2022-11-16T12:12:04.404Z,98.30
2022-11-16T12:14:56.782Z,98.10
2022-11-16T12:17:31.798Z,98.60
2022-11-16T12:20:16.218Z,96.90
2022-11-16T12:23:26.984Z,99.10
2022-11-16T12:26:02.119Z,99.70
2022-11-16T12:28:50.931Z,99.90
2022-11-16T12:31:37.482Z,99.90
2022-11-16T12:34:11.166Z,99.90
2022-11-16T12:36:56.948Z,99.90
2022-11-16T12:39:27.539Z,99.90
2022-11-16T12:42:28.214Z,99.90
2022-11-16T12:45:18.408Z,99.90
2022-11-16T12:48:05.131Z,99.90
2022-11-16T12:50:51.366Z,99.90
2022-11-16T12:53:55.683Z,99.90
2022-11-16T12:56:34.370Z,98.70
2022-11-16T12:59:25.326Z,99.90
2022-11-16T13:02:04.361Z,99.90
2022-11-16T13:04:40.312Z,99.90
2022-11-16T13:07:13.558Z,99.90
2022-11-16T13:09:44.745Z,99.90
2022-11-16T13:12:17.106Z,99.90
2022-11-16T13:14:47.896Z,99.90
2022-11-16T13:17:21.599Z,99.90
2022-11-16T13:20:14.238Z,99.90
2022-11-16T13:22:50.764Z,99.90
2022-11-16T13:25:25.545Z,99.90
2022-11-16T13:27:59.470Z,99.90
2022-11-16T13:30:30.041Z,99.90
2022-11-16T13:33:13.950Z,99.90
2022-11-16T13:35:43.318Z,99.90
2022-11-16T13:38:13.420Z,99.90
2022-11-16T13:40:41.857Z,99.90
2022-11-16T13:43:22.552Z,99.90
2022-11-16T13:45:58.463Z,99.90
2022-11-16T13:48:30.552Z,99.90
2022-11-16T13:51:02.715Z,99.90
2022-11-16T13:56:28.336Z,99.90
2022-11-16T13:58:58.394Z,99.90
2022-11-16T14:01:26.570Z,99.90
2022-11-16T14:04:33.313Z,99.90
2022-11-16T14:07:02.609Z,99.90
2022-11-16T14:09:47.533Z,99.90
2022-11-16T14:12:54.286Z,99.90
2022-11-16T14:15:24.578Z,99.90
2022-11-16T14:17:58.708Z,99.90
2022-11-16T14:20:57.962Z,95.80
2022-11-16T14:23:35.864Z,98.40
2022-11-16T14:26:13.925Z,97.20
2022-11-16T14:29:20.057Z,99.90
2022-11-16T14:31:52.110Z,95.10
2022-11-16T14:34:23.362Z,91.30
2022-11-16T14:36:51.455Z,93.90
2022-11-16T14:39:30.674Z,94.90
2022-11-16T14:42:01.640Z,91.90
2022-11-16T14:44:33.430Z,93.90
2022-11-16T14:47:03.629Z,96.90
2022-11-16T14:49:34.798Z,96.00
2022-11-16T14:52:05.400Z,93.60
2022-11-16T14:54:39.270Z,92.60
2022-11-16T14:57:08.761Z,95.30
2022-11-16T14:59:36.622Z,94.30
2022-11-16T15:02:15.176Z,94.90
2022-11-16T15:04:43.138Z,92.60
2022-11-16T15:07:14.476Z,94.10
2022-11-16T15:09:48.132Z,94.60
2022-11-16T15:12:36.402Z,95.20
2022-11-16T15:15:07.831Z,95.00
2022-11-16T15:17:36.581Z,91.40
2022-11-16T15:20:15.748Z,93.30
2022-11-16T15:22:45.861Z,96.50
2022-11-16T15:25:27.598Z,93.30
2022-11-16T15:27:56.226Z,99.90
2022-11-16T15:30:26.533Z,97.90
2022-11-16T15:32:55.228Z,97.60
2022-11-16T15:35:25.033Z,99.90
2022-11-16T15:38:03.909Z,95.50
2022-11-16T15:40:34.228Z,94.30
2022-11-16T15:43:05.936Z,97.60
2022-11-16T15:45:34.635Z,96.40
2022-11-16T15:48:04.241Z,97.00
2022-11-16T15:50:32.426Z,99.10
2022-11-16T15:53:00.269Z,99.90
2022-11-16T15:55:39.666Z,99.90
2022-11-16T15:58:16.201Z,99.90
2022-11-16T16:00:48.734Z,99.90
2022-11-16T16:03:21.685Z,99.90
2022-11-16T16:05:50.157Z,99.00
2022-11-16T16:08:32.894Z,99.90
2022-11-16T16:11:13.570Z,99.90
2022-11-16T16:13:42.934Z,99.90
2022-11-16T16:16:30.412Z,99.90
2022-11-16T16:19:05.120Z,99.90
2022-11-16T16:21:44.695Z,99.10
2022-11-16T16:24:36.941Z,97.20
2022-11-16T16:27:13.985Z,99.90
2022-11-16T16:29:41.906Z,99.90
2022-11-16T16:32:15.259Z,99.90
2022-11-16T16:34:43.170Z,99.90
2022-11-16T16:37:14.534Z,99.60
2022-11-16T16:39:42.513Z,99.90
2022-11-16T16:42:13.614Z,95.20
2022-11-16T16:44:41.808Z,94.60
2022-11-16T16:47:10.361Z,99.90
2022-11-16T16:49:38.421Z,94.70
2022-11-16T16:52:07.898Z,99.50
2022-11-16T16:54:35.748Z,99.90
2022-11-16T16:57:03.589Z,99.90
2022-11-16T16:59:33.005Z,99.90
2022-11-16T17:02:00.919Z,99.90
2022-11-16T17:04:28.777Z,99.90
2022-11-16T17:06:56.667Z,99.90
2022-11-16T17:09:24.532Z,99.90
2022-11-16T17:11:52.372Z,99.10
2022-11-16T17:14:24.255Z,99.90
2022-11-16T17:16:53.475Z,99.90
2022-11-16T17:19:21.944Z,99.90
2022-11-16T17:21:49.859Z,99.90
2022-11-16T17:24:17.750Z,94.90
2022-11-16T17:26:48.172Z,96.00
2022-11-16T17:29:16.326Z,99.90
2022-11-16T17:31:44.829Z,99.90
2022-11-16T17:34:14.555Z,99.90
2022-11-16T17:36:42.652Z,99.90
2022-11-16T17:39:10.566Z,99.90
2022-11-16T17:41:38.611Z,99.90
2022-11-16T17:44:07.215Z,96.90
2022-11-16T17:46:35.115Z,99.90
2022-11-16T17:49:03.059Z,99.90
2022-11-16T17:51:32.280Z,99.90
2022-11-16T17:54:00.181Z,99.90
2022-11-16T17:56:29.143Z,98.70
2022-11-16T17:58:58.391Z,99.90
2022-11-16T18:01:27.169Z,99.30
2022-11-16T18:03:55.312Z,97.40
2022-11-16T18:06:24.942Z,99.90
2022-11-16T18:08:55.568Z,99.90
2022-11-16T18:11:25.852Z,99.90
2022-11-16T18:13:54.846Z,99.90
2022-11-16T18:16:24.408Z,99.90
2022-11-16T18:18:57.792Z,99.90
2022-11-16T18:21:25.940Z,99.90
2022-11-16T18:23:55.550Z,99.90
2022-11-16T18:26:24.682Z,99.90
2022-11-16T18:28:53.915Z,99.90
2022-11-16T18:31:23.900Z,99.90
2022-11-16T18:33:52.432Z,99.90
2022-11-16T18:36:22.545Z,99.90
2022-11-16T18:38:50.652Z,99.90
2022-11-16T18:41:21.526Z,97.50
2022-11-16T18:43:51.448Z,99.90
2022-11-16T18:46:19.825Z,95.60
2022-11-16T18:48:48.269Z,99.90
2022-11-16T18:51:17.751Z,99.90
2022-11-16T18:53:45.996Z,99.90
2022-11-16T18:56:14.537Z,99.90
2022-11-16T18:58:50.357Z,99.90
2022-11-16T19:01:21.033Z,99.90
2022-11-16T19:03:49.137Z,99.90
2022-11-16T19:06:17.750Z,99.90
2022-11-16T19:08:50.511Z,99.90
2022-11-16T19:11:24.278Z,98.20
2022-11-16T19:13:56.115Z,99.90
2022-11-16T19:16:25.093Z,99.90
2022-11-16T19:18:53.452Z,99.90
2022-11-16T19:21:21.797Z,99.90
2022-11-16T19:23:51.573Z,99.90
2022-11-16T19:26:22.432Z,99.90
2022-11-16T19:28:51.463Z,99.90
2022-11-16T19:31:22.409Z,99.90
2022-11-16T19:33:54.981Z,99.90
2022-11-16T19:36:23.348Z,99.90
2022-11-16T19:38:51.992Z,99.90
2022-11-16T19:41:21.535Z,99.90
2022-11-16T19:43:51.226Z,99.90
2022-11-16T19:46:21.454Z,99.90
2022-11-16T19:48:49.975Z,99.90
2022-11-16T19:51:19.799Z,99.90
2022-11-16T19:53:48.439Z,99.90
2022-11-16T19:56:17.953Z,99.90
2022-11-16T19:58:46.007Z,99.90
2022-11-16T20:01:16.984Z,99.90
2022-11-16T20:03:46.712Z,99.00
2022-11-16T20:06:17.028Z,99.90
2022-11-16T20:08:49.005Z,99.90
2022-11-16T20:11:18.400Z,99.80
2022-11-16T20:13:46.223Z,96.20
2022-11-16T20:16:15.427Z,99.90
2022-11-16T20:18:44.120Z,99.90
2022-11-16T20:21:17.676Z,99.90
2022-11-16T20:23:45.582Z,99.90
2022-11-16T20:26:14.790Z,99.90
2022-11-16T20:28:43.774Z,99.90
2022-11-16T20:31:13.629Z,99.90
2022-11-16T20:33:41.789Z,99.90
2022-11-16T20:36:11.945Z,99.90
2022-11-16T20:38:41.410Z,99.90
2022-11-16T20:41:10.986Z,99.90
2022-11-16T20:43:40.121Z,99.90
2022-11-16T20:46:08.400Z,99.90
2022-11-16T20:48:40.395Z,99.90
2022-11-16T20:51:09.813Z,99.90
2022-11-16T20:53:38.225Z,99.90
2022-11-16T20:56:08.568Z,99.90
2022-11-16T20:58:36.481Z,99.90
2022-11-16T21:01:05.793Z,99.90
2022-11-16T21:03:34.611Z,99.90
2022-11-16T21:06:02.761Z,99.90
2022-11-16T21:08:31.089Z,99.90
2022-11-16T21:10:58.951Z,99.90
2022-11-16T21:13:46.072Z,99.90
2022-11-16T21:16:16.287Z,99.90
2022-11-16T21:18:44.077Z,99.90
2022-11-16T21:21:13.944Z,99.90
2022-11-16T21:23:44.991Z,99.90
2022-11-16T21:26:14.955Z,99.90
2022-11-16T21:28:44.685Z,99.90
2022-11-16T21:31:14.798Z,99.90
2022-11-16T21:33:43.607Z,99.90
2022-11-16T21:36:13.135Z,99.90
2022-11-16T21:38:41.153Z,97.30
2022-11-16T21:41:09.760Z,99.90
2022-11-16T21:43:38.257Z,99.90
2022-11-16T21:46:10.644Z,99.90
2022-11-16T21:48:39.115Z,99.90
2022-11-16T21:51:08.509Z,99.90
2022-11-16T21:53:37.312Z,99.90
2022-11-16T21:56:06.636Z,99.90
2022-11-16T21:58:34.547Z,99.90
2022-11-16T22:01:03.236Z,99.90
2022-11-16T22:03:33.221Z,95.90
2022-11-16T22:06:20.815Z,99.90
2022-11-16T22:08:49.509Z,99.90
2022-11-16T22:11:21.735Z,99.90
2022-11-16T22:13:50.122Z,99.90
2022-11-16T22:16:19.264Z,99.90
2022-11-16T22:18:48.434Z,99.90
2022-11-16T22:21:16.256Z,99.90
2022-11-16T22:23:44.090Z,98.10
2022-11-16T22:26:13.269Z,99.90
2022-11-16T22:28:43.115Z,99.90
2022-11-16T22:31:12.969Z,98.40
2022-11-16T22:33:41.108Z,99.90
2022-11-16T22:36:11.146Z,99.00
2022-11-16T22:38:39.238Z,99.90
2022-11-16T22:41:07.239Z,99.90
2022-11-16T22:43:35.856Z,99.90
2022-11-16T22:46:06.355Z,99.90
2022-11-16T22:48:34.942Z,99.90
2022-11-16T22:51:04.510Z,98.60
2022-11-16T22:53:34.154Z,99.90
2022-11-16T22:56:07.013Z,99.60
2022-11-16T22:58:34.978Z,99.00
2022-11-16T23:01:03.087Z,99.90
2022-11-16T23:03:31.279Z,98.60
2022-11-16T23:05:59.553Z,99.90
2022-11-16T23:08:27.396Z,99.90
2022-11-16T23:11:18.543Z,99.90
2022-11-16T23:14:04.534Z,99.90
2022-11-16T23:16:32.509Z,99.90
2022-11-16T23:19:00.617Z,99.90
2022-11-16T23:21:46.373Z,99.90
2022-11-16T23:24:33.746Z,99.90
2022-11-16T23:27:22.489Z,99.50
2022-11-16T23:29:50.776Z,99.90
2022-11-16T23:32:18.611Z,99.90
2022-11-16T23:34:46.426Z,99.90
2022-11-16T23:37:14.283Z,99.70
2022-11-16T23:39:42.092Z,99.40
2022-11-16T23:42:29.601Z,99.90
2022-11-16T23:44:57.473Z,99.90
2022-11-16T23:47:25.487Z,99.50
2022-11-16T23:49:53.301Z,99.80
2022-11-16T23:52:21.226Z,99.90
2022-11-16T23:54:49.041Z,99.70
2022-11-16T23:57:18.210Z,99.90
2022-11-16T23:59:46.040Z,99.90
